Aviation Digital Data Service (ADDS)

Output produced by METARs form (1254 UTC 21 February 2018)
found at http://www.aviationweather.gov/adds/metars/
 
TAF CYTZ 201339Z 2014/2114 08006KT WS015/22040KT 3/4SM -RA BR OVC004 
     TEMPO 2014/2017 4SM BR SCT004 OVC010 
     BECMG 2015/2017 21015KT 
     FM201700 21015KT P6SM OVC015 
     TEMPO 2017/2102 4SM -SHRA BR BKN005 OVC012 
     BECMG 2017/2019 22015G25KT 
     FM210200 23015G25KT P6SM BKN040 OVC200 
     FM210900 23012G22KT 4SM -SHRA BR BKN007 OVC020 
     BECMG 2112/2114 31012G22KT RMK FCST BASED ON AUTO OBS. NXT FCST BY 202000Z
       
TAF CYVR 201444Z 2015/2118 08007KT P6SM FEW050 BKN100 
     TEMPO 2015/2018 BKN050 
     FM201800 09007KT P6SM FEW050 
     BECMG 2021/2023 30007KT 
     FM210400 09008KT P6SM FEW040 RMK NXT FCST BY 201800Z
       
TAF CYYZ 201441Z 2015/2118 17006KT WS015/22040KT 6SM -RA BR OVC015 
     TEMPO 2015/2017 11/2SM BR BKN003 OVC015 
     BECMG 2015/2017 22015G25KT 
     FM201700 22015G25KT P6SM BKN015 OVC030 
     TEMPO 2017/2102 4SM -SHRA BR BKN007 OVC015 
     FM210200 23015G25KT P6SM BKN040 OVC200 
     FM210900 24012G22KT 4SM SHRA BR BKN007 OVC020 
     FM211100 26012KT 11/2SM -RA BR OVC005 
     BECMG 2112/2114 33018G28KT RMK NXT FCST BY 201800Z
       
TAF CYTZ 201339Z 2014/2114 08006KT WS015/22040KT 3/4SM -RA BR OVC004 
     TEMPO 2014/2017 4SM BR SCT004 OVC010 
     BECMG 2015/2017 21015KT 
     FM201700 21015KT P6SM OVC015 
     TEMPO 2017/2102 4SM -SHRA BR BKN005 OVC012 
     BECMG 2017/2019 22015G25KT 
     FM210200 23015G25KT P6SM BKN040 OVC200 
     FM210900 23012G22KT 4SM -SHRA BR BKN007 OVC020 
     BECMG 2112/2114 31012G22KT RMK FCST BASED ON AUTO OBS. NXT FCST BY 202000Z
       
TAF CYYZ 201441Z 2015/2118 17006KT WS015/22040KT 6SM -RA BR OVC015 
     TEMPO 2015/2017 11/2SM BR BKN003 OVC015 
     BECMG 2015/2017 22015G25KT 
     FM201700 22015G25KT P6SM BKN015 OVC030 
     TEMPO 2017/2102 4SM -SHRA BR BKN007 OVC015 
     FM210200 23015G25KT P6SM BKN040 OVC200 
     FM210900 24012G22KT 4SM SHRA BR BKN007 OVC020 
     FM211100 26012KT 11/2SM -RA BR OVC005 
     BECMG 2112/2114 33018G28KT RMK NXT FCST BY 201800Z
       
TAF CYVR 201444Z 2015/2118 08007KT P6SM FEW050 BKN100 
     TEMPO 2015/2018 BKN050 
     FM201800 09007KT P6SM FEW050 
     BECMG 2021/2023 30007KT 
     FM210400 09008KT P6SM FEW040 RMK NXT FCST BY 201800Z